Time;durP1;ratioP1;P1;durP2;ratioP2;P2;SDS_P1;SDS_P2;PMS_P1;PMS_P2;Temp;Humidity;BMP_temperature;BMP_pressure;BME280_temperature;BME280_humidity;BME280_pressure;Samples;Min_cycle;Max_cycle;Signal;HPM_P1;HPM_P2
2023/08/26 00:00:13;;;;;;;4.97;3.47;;;;;;;;;;10277267;28;20058;-80
2023/08/26 00:05:18;;;;;;;6.65;4.00;;;;;;;;;;10280736;28;20047;-80
2023/08/26 00:10:21;;;;;;;8.02;4.10;;;;;;;;;;10261768;28;20074;-80
2023/08/26 00:15:24;;;;;;;5.25;3.40;;;;;;;;;;10262682;28;20070;-80
2023/08/26 00:20:30;;;;;;;4.65;3.40;;;;;;;;;;10263551;28;20142;-80
2023/08/26 00:25:33;;;;;;;7.33;3.17;;;;;;;;;;10255720;28;20054;-80
2023/08/26 00:30:36;;;;;;;5.25;3.58;;;;;;;;;;10261852;28;20051;-80
2023/08/26 00:35:42;;;;;;;4.95;3.95;;;;;;;;;;10263224;28;20086;-81
2023/08/26 00:40:46;;;;;;;4.07;2.90;;;;;;;;;;10263158;28;20086;-81
2023/08/26 00:45:51;;;;;;;4.15;2.65;;;;;;;;;;10280759;28;20516;-81
2023/08/26 00:50:56;;;;;;;;;;;;;;;;;;10263163;28;20057;-81
2023/08/26 00:56:01;;;;;;;3.47;2.83;;;;;;;;;;10263728;28;20356;-81
2023/08/26 01:01:05;;;;;;;4.45;2.92;;;;;;;;;;10269438;28;20098;-81
2023/08/26 01:06:32;;;;;;;2.65;2.10;;;;;;;;;;10909303;23;20113;-83
2023/08/26 01:11:41;;;;;;;2.78;1.88;;;;;;;;;;10331560;28;20526;-83
2023/08/26 01:16:44;;;;;;;2.60;1.30;;;;;;;;;;10341258;28;20050;-83
2023/08/26 01:21:51;;;;;;;1.73;1.30;;;;;;;;;;10339173;28;20125;-82
2023/08/26 01:26:56;;;;;;;2.53;1.95;;;;;;;;;;10339567;28;20041;-83
2023/08/26 01:32:09;;;;;;;1.83;1.40;;;;;;;;;;10341690;28;20046;-85
2023/08/26 01:37:14;;;;;;;3.80;1.58;;;;;;;;;;10342132;28;20075;-85
2023/08/26 01:42:21;;;;;;;2.20;1.40;;;;;;;;;;10340442;28;20113;-85
2023/08/26 01:47:25;;;;;;;1.45;1.00;;;;;;;;;;10339684;28;20133;-84
2023/08/26 01:52:28;;;;;;;3.47;1.80;;;;;;;;;;10340110;28;20053;-85
2023/08/26 01:57:33;;;;;;;3.55;1.80;;;;;;;;;;10339656;28;20136;-85
2023/08/26 02:02:38;;;;;;;2.17;1.30;;;;;;;;;;10345800;28;20080;-87
2023/08/26 02:07:42;;;;;;;1.25;1.08;;;;;;;;;;10339800;28;20563;-86
2023/08/26 02:12:47;;;;;;;3.00;1.50;;;;;;;;;;10340598;28;20046;-87
2023/08/26 02:17:50;;;;;;;2.75;1.17;;;;;;;;;;10339416;28;20462;-86
2023/08/26 02:22:54;;;;;;;2.03;1.30;;;;;;;;;;10355736;28;20054;-87
2023/08/26 02:27:59;;;;;;;4.15;2.08;;;;;;;;;;10348899;28;20078;-87
2023/08/26 02:33:02;;;;;;;2.75;1.60;;;;;;;;;;10339737;28;20050;-86
2023/08/26 02:38:06;;;;;;;4.60;1.35;;;;;;;;;;10338107;28;20058;-85
2023/08/26 02:43:11;;;;;;;3.65;1.38;;;;;;;;;;10337618;28;20136;-86
2023/08/26 02:48:14;;;;;;;2.95;1.30;;;;;;;;;;10336262;28;20058;-86
2023/08/26 02:53:19;;;;;;;4.03;1.38;;;;;;;;;;10336959;28;20046;-86
2023/08/26 02:58:24;;;;;;;1.80;1.00;;;;;;;;;;10337579;28;20046;-84
2023/08/26 03:03:27;;;;;;;2.78;0.98;;;;;;;;;;10336669;28;20050;-85
2023/08/26 03:08:31;;;;;;;2.92;1.08;;;;;;;;;;10337622;28;20495;-85
2023/08/26 03:13:35;;;;;;;2.78;1.65;;;;;;;;;;10336316;28;20136;-85
2023/08/26 03:18:40;;;;;;;4.25;1.40;;;;;;;;;;10337008;28;20053;-84
2023/08/26 03:23:44;;;;;;;3.47;1.10;;;;;;;;;;10336893;28;20093;-85
2023/08/26 03:28:49;;;;;;;1.48;1.13;;;;;;;;;;10351833;28;20045;-85
2023/08/26 03:33:53;;;;;;;2.53;1.50;;;;;;;;;;10336621;28;20057;-84
2023/08/26 03:38:56;;;;;;;1.25;0.80;;;;;;;;;;10361179;28;20100;-85
2023/08/26 03:44:04;;;;;;;1.73;1.38;;;;;;;;;;10343932;28;20053;-84
2023/08/26 03:49:08;;;;;;;1.92;1.10;;;;;;;;;;10343072;28;20750;-85
2023/08/26 03:54:12;;;;;;;1.88;1.15;;;;;;;;;;10341749;28;20070;-85
2023/08/26 03:59:16;;;;;;;1.90;0.90;;;;;;;;;;10347383;28;20038;-84
2023/08/26 04:04:20;;;;;;;1.67;0.90;;;;;;;;;;10351844;28;20050;-84
2023/08/26 04:09:24;;;;;;;1.33;0.90;;;;;;;;;;10358707;28;20136;-85
2023/08/26 04:14:29;;;;;;;1.75;0.55;;;;;;;;;;10342203;28;20049;-84
2023/08/26 04:19:32;;;;;;;1.58;0.63;;;;;;;;;;10342677;28;20066;-85
2023/08/26 04:24:36;;;;;;;1.35;0.77;;;;;;;;;;10365452;28;20058;-84
2023/08/26 04:29:42;;;;;;;2.03;0.95;;;;;;;;;;10341855;28;20062;-84
2023/08/26 04:34:45;;;;;;;1.48;0.60;;;;;;;;;;10342513;28;20149;-84
2023/08/26 04:39:49;;;;;;;2.47;0.57;;;;;;;;;;10358867;28;20081;-86
2023/08/26 04:44:54;;;;;;;0.85;0.63;;;;;;;;;;10341760;28;20140;-85
2023/08/26 04:49:59;;;;;;;0.52;0.50;;;;;;;;;;10341276;28;20045;-85
2023/08/26 04:55:04;;;;;;;0.93;0.70;;;;;;;;;;10341920;28;20104;-84
2023/08/26 05:00:10;;;;;;;0.65;0.50;;;;;;;;;;10340938;28;20707;-84
2023/08/26 05:05:15;;;;;;;2.67;0.60;;;;;;;;;;10341161;28;20591;-85
2023/08/26 05:10:19;;;;;;;1.70;0.50;;;;;;;;;;10340657;28;20559;-84
2023/08/26 05:15:26;;;;;;;1.73;0.70;;;;;;;;;;10339996;28;20046;-83
2023/08/26 05:20:30;;;;;;;1.55;0.60;;;;;;;;;;10340270;28;20133;-83
2023/08/26 05:25:35;;;;;;;1.10;0.50;;;;;;;;;;10356020;28;20073;-85
2023/08/26 05:30:40;;;;;;;2.13;0.60;;;;;;;;;;10340326;28;20149;-84
2023/08/26 05:35:44;;;;;;;1.03;0.53;;;;;;;;;;10340970;28;20601;-84
2023/08/26 05:40:48;;;;;;;1.27;0.77;;;;;;;;;;10364231;28;20053;-84
2023/08/26 05:45:56;;;;;;;0.70;0.60;;;;;;;;;;10339797;28;20053;-85
2023/08/26 05:50:59;;;;;;;1.00;0.47;;;;;;;;;;10339565;28;20049;-85
2023/08/26 05:56:02;;;;;;;0.65;0.50;;;;;;;;;;10332500;28;20077;-84
2023/08/26 06:01:07;;;;;;;0.60;0.40;;;;;;;;;;10354432;28;20038;-84
2023/08/26 06:06:11;;;;;;;2.25;0.40;;;;;;;;;;10338913;28;20649;-83
2023/08/26 06:11:14;;;;;;;0.90;0.50;;;;;;;;;;10344858;28;20309;-86
2023/08/26 06:16:21;;;;;;;0.65;0.60;;;;;;;;;;10340399;28;20050;-84
2023/08/26 06:21:25;;;;;;;0.75;0.40;;;;;;;;;;10334640;28;20760;-86
2023/08/26 06:26:28;;;;;;;3.72;0.52;;;;;;;;;;10341326;28;20061;-84
2023/08/26 06:31:33;;;;;;;0.63;0.47;;;;;;;;;;10340236;28;20463;-85
2023/08/26 06:36:36;;;;;;;0.90;0.60;;;;;;;;;;10341405;28;20056;-86
2023/08/26 06:41:40;;;;;;;0.98;0.50;;;;;;;;;;10343168;28;20084;-86
2023/08/26 06:46:45;;;;;;;1.30;0.70;;;;;;;;;;10342869;28;20050;-85
2023/08/26 06:51:49;;;;;;;2.53;0.77;;;;;;;;;;10341859;28;20068;-85
2023/08/26 06:56:53;;;;;;;1.10;0.63;;;;;;;;;;10341280;28;20050;-85
2023/08/26 07:01:57;;;;;;;0.57;0.40;;;;;;;;;;10363430;23;20038;-82
2023/08/26 07:07:01;;;;;;;2.05;0.73;;;;;;;;;;10272886;28;20118;-81
2023/08/26 07:12:05;;;;;;;1.15;0.50;;;;;;;;;;10247351;28;20154;-82
2023/08/26 07:17:09;;;;;;;0.65;0.43;;;;;;;;;;10252511;28;20533;-82
2023/08/26 07:22:13;;;;;;;0.30;0.22;;;;;;;;;;10250494;28;20476;-82
2023/08/26 07:27:18;;;;;;;0.30;0.30;;;;;;;;;;10238399;28;20134;-81
2023/08/26 07:32:22;;;;;;;0.82;0.50;;;;;;;;;;10246042;28;20058;-81
2023/08/26 07:37:26;;;;;;;3.13;1.10;;;;;;;;;;10263925;28;20496;-81
2023/08/26 07:42:29;;;;;;;1.33;0.68;;;;;;;;;;10272860;28;20086;-81
2023/08/26 07:47:34;;;;;;;2.80;0.70;;;;;;;;;;10258604;28;20047;-81
2023/08/26 07:52:40;;;;;;;1.70;0.50;;;;;;;;;;10243771;28;20059;-81
2023/08/26 07:57:44;;;;;;;1.35;0.55;;;;;;;;;;10259699;28;20413;-81
2023/08/26 08:02:48;;;;;;;0.57;0.47;;;;;;;;;;10269131;28;20134;-81
2023/08/26 08:07:52;;;;;;;1.02;0.45;;;;;;;;;;10250805;28;20047;-81
2023/08/26 08:12:58;;;;;;;1.40;0.70;;;;;;;;;;10260518;28;20453;-81
2023/08/26 08:18:06;;;;;;;1.55;0.88;;;;;;;;;;10238695;28;20417;-81
2023/08/26 08:23:09;;;;;;;1.48;0.75;;;;;;;;;;10281119;28;20161;-81
2023/08/26 08:28:13;;;;;;;2.42;0.90;;;;;;;;;;10260035;28;20043;-81
2023/08/26 08:33:17;;;;;;;1.77;0.40;;;;;;;;;;10251801;28;20134;-81
2023/08/26 08:38:21;;;;;;;0.70;0.60;;;;;;;;;;10257688;28;20109;-80
2023/08/26 08:43:29;;;;;;;1.55;0.60;;;;;;;;;;10253102;28;20559;-81
2023/08/26 08:48:34;;;;;;;1.40;0.70;;;;;;;;;;10261804;28;20085;-81
2023/08/26 08:53:44;;;;;;;0.98;0.57;;;;;;;;;;10268258;28;20502;-80
2023/08/26 08:58:49;;;;;;;1.85;0.75;;;;;;;;;;10243611;28;20047;-80
2023/08/26 09:03:54;;;;;;;1.10;0.80;;;;;;;;;;10266514;28;20516;-80
2023/08/26 09:09:00;;;;;;;1.85;0.47;;;;;;;;;;10255842;28;20097;-80
2023/08/26 09:14:03;;;;;;;1.80;0.70;;;;;;;;;;10238747;28;20489;-80
2023/08/26 09:19:09;;;;;;;1.15;0.60;;;;;;;;;;10263012;28;20396;-80
2023/08/26 09:24:13;;;;;;;0.80;0.50;;;;;;;;;;10268338;28;20126;-80
2023/08/26 09:29:20;;;;;;;0.60;0.38;;;;;;;;;;10272434;28;20423;-80
2023/08/26 09:34:28;;;;;;;1.83;0.57;;;;;;;;;;10269085;28;20059;-80
2023/08/26 09:39:32;;;;;;;1.77;0.60;;;;;;;;;;10260982;28;20332;-80
2023/08/26 09:44:35;;;;;;;1.08;0.60;;;;;;;;;;10265789;28;20560;-80
2023/08/26 09:49:47;;;;;;;1.73;0.55;;;;;;;;;;10257755;28;20130;-80
2023/08/26 09:54:52;;;;;;;1.95;0.63;;;;;;;;;;10259724;28;20094;-81
2023/08/26 09:59:56;;;;;;;0.77;0.43;;;;;;;;;;10269578;28;20117;-80
2023/08/26 10:05:05;;;;;;;2.15;0.60;;;;;;;;;;10254402;28;20602;-80
2023/08/26 10:10:14;;;;;;;1.80;0.82;;;;;;;;;;10257204;28;20066;-80
2023/08/26 10:15:20;;;;;;;2.15;0.88;;;;;;;;;;10251413;28;20081;-81
2023/08/26 10:20:24;;;;;;;1.92;0.68;;;;;;;;;;10276995;28;20051;-80
2023/08/26 10:25:30;;;;;;;2.05;0.70;;;;;;;;;;10245028;28;20146;-81
2023/08/26 10:30:34;;;;;;;2.35;1.10;;;;;;;;;;10268637;28;20054;-80
2023/08/26 10:35:40;;;;;;;0.75;0.40;;;;;;;;;;10267793;28;20911;-80
2023/08/26 10:40:44;;;;;;;0.82;0.60;;;;;;;;;;10252431;28;20591;-80
2023/08/26 10:45:48;;;;;;;0.90;0.60;;;;;;;;;;10250831;28;20142;-80
2023/08/26 10:51:01;;;;;;;1.25;0.50;;;;;;;;;;10241166;28;20051;-80
2023/08/26 10:56:14;;;;;;;0.77;0.60;;;;;;;;;;10267808;28;20137;-81
2023/08/26 11:01:18;;;;;;;1.60;0.70;;;;;;;;;;10242011;28;20153;-80
2023/08/26 11:06:23;;;;;;;1.35;0.60;;;;;;;;;;10275487;28;20071;-80
2023/08/26 11:11:26;;;;;;;2.47;0.77;;;;;;;;;;10273451;28;20479;-80
2023/08/26 11:16:30;;;;;;;1.83;0.70;;;;;;;;;;10259290;28;20480;-81
2023/08/26 11:21:38;;;;;;;3.17;0.75;;;;;;;;;;10279357;28;20055;-80
2023/08/26 11:26:47;;;;;;;1.70;0.50;;;;;;;;;;10241310;28;20513;-80
2023/08/26 11:31:51;;;;;;;0.77;0.40;;;;;;;;;;10243058;28;20134;-81
2023/08/26 11:36:55;;;;;;;1.75;0.70;;;;;;;;;;10244987;28;20039;-81
2023/08/26 11:41:59;;;;;;;2.23;0.87;;;;;;;;;;10239680;28;20075;-80
2023/08/26 11:47:02;;;;;;;1.80;0.65;;;;;;;;;;10274121;28;20085;-80
2023/08/26 11:52:07;;;;;;;1.45;0.50;;;;;;;;;;10256132;28;20047;-80
2023/08/26 11:57:11;;;;;;;1.50;0.60;;;;;;;;;;10261620;28;20312;-80
2023/08/26 12:02:21;;;;;;;1.50;0.60;;;;;;;;;;10262730;28;20286;-80
2023/08/26 12:07:26;;;;;;;1.67;0.60;;;;;;;;;;10258641;28;20054;-81
2023/08/26 12:12:30;;;;;;;1.15;0.60;;;;;;;;;;10265639;28;20125;-85
2023/08/26 12:17:42;;;;;;;6.35;0.80;;;;;;;;;;10276429;28;20129;-85
2023/08/26 12:22:47;;;;;;;3.03;0.55;;;;;;;;;;10255564;28;20042;-84
2023/08/26 12:27:50;;;;;;;0.60;0.47;;;;;;;;;;10257625;28;20053;-84
2023/08/26 12:32:54;;;;;;;1.75;1.00;;;;;;;;;;10259334;28;20778;-84
2023/08/26 12:38:02;;;;;;;2.75;0.90;;;;;;;;;;10259994;28;20054;-84
2023/08/26 12:43:06;;;;;;;0.90;0.52;;;;;;;;;;10274704;28;20114;-84
2023/08/26 12:48:09;;;;;;;1.88;0.77;;;;;;;;;;10258940;28;20393;-84
2023/08/26 12:53:14;;;;;;;0.82;0.50;;;;;;;;;;10264093;28;20505;-84
2023/08/26 12:58:22;;;;;;;0.50;0.30;;;;;;;;;;10259148;28;20055;-84
2023/08/26 13:03:25;;;;;;;1.58;0.60;;;;;;;;;;10287779;23;20069;-81
2023/08/26 13:08:30;;;;;;;0.30;0.30;;;;;;;;;;10331593;28;20084;-82
2023/08/26 13:13:33;;;;;;;0.50;0.40;;;;;;;;;;10338924;28;20138;-82
2023/08/26 13:18:38;;;;;;;1.40;0.50;;;;;;;;;;10330415;28;20164;-82
2023/08/26 13:23:42;;;;;;;0.52;0.30;;;;;;;;;;10343485;28;20161;-82
2023/08/26 13:28:46;;;;;;;0.85;0.50;;;;;;;;;;10337771;28;20062;-81
2023/08/26 13:33:49;;;;;;;0.70;0.35;;;;;;;;;;10342643;28;20567;-81
2023/08/26 13:38:53;;;;;;;0.38;0.30;;;;;;;;;;10341457;28;20073;-82
2023/08/26 13:43:57;;;;;;;1.00;0.40;;;;;;;;;;10358897;28;20049;-81
2023/08/26 13:49:01;;;;;;;1.15;0.47;;;;;;;;;;10351874;28;20038;-82
2023/08/26 13:54:05;;;;;;;0.32;0.22;;;;;;;;;;10351116;28;20160;-81
2023/08/26 13:59:09;;;;;;;0.65;0.17;;;;;;;;;;10359562;28;20136;-82
2023/08/26 14:04:12;;;;;;;0.52;0.43;;;;;;;;;;10342262;28;20724;-84
2023/08/26 14:09:17;;;;;;;0.55;0.40;;;;;;;;;;10355389;28;20096;-84
2023/08/26 14:14:20;;;;;;;0.17;0.17;;;;;;;;;;10360809;28;20633;-84
2023/08/26 14:19:24;;;;;;;0.30;0.30;;;;;;;;;;10343370;28;20084;-82
2023/08/26 14:24:28;;;;;;;0.80;0.32;;;;;;;;;;10336548;28;20043;-82
2023/08/26 14:29:31;;;;;;;0.90;0.33;;;;;;;;;;10330919;28;20054;-82
2023/08/26 14:34:35;;;;;;;0.30;0.30;;;;;;;;;;10327179;28;20080;-82
2023/08/26 14:39:41;;;;;;;0.52;0.30;;;;;;;;;;10356726;28;20045;-81
2023/08/26 14:44:44;;;;;;;0.40;0.40;;;;;;;;;;10330883;28;20245;-85
2023/08/26 14:49:47;;;;;;;0.65;0.38;;;;;;;;;;10341322;28;20068;-82
2023/08/26 14:54:52;;;;;;;0.50;0.30;;;;;;;;;;10327601;28;20084;-82
2023/08/26 14:59:56;;;;;;;0.52;0.40;;;;;;;;;;10347728;28;20050;-82
2023/08/26 15:04:59;;;;;;;0.60;0.30;;;;;;;;;;10312410;28;20069;-82
2023/08/26 15:10:05;;;;;;;2.40;0.40;;;;;;;;;;10334942;28;20088;-82
2023/08/26 15:15:09;;;;;;;1.42;0.45;;;;;;;;;;10350177;28;20041;-83
2023/08/26 15:20:14;;;;;;;0.57;0.45;;;;;;;;;;10343269;28;20138;-83
2023/08/26 15:25:18;;;;;;;0.63;0.40;;;;;;;;;;10330782;28;20065;-82
2023/08/26 15:30:22;;;;;;;0.67;0.37;;;;;;;;;;10340694;28;20137;-82
2023/08/26 15:35:27;;;;;;;1.70;0.90;;;;;;;;;;10337051;28;20061;-82
2023/08/26 15:40:32;;;;;;;0.87;0.73;;;;;;;;;;10337173;28;20134;-83
2023/08/26 15:45:39;;;;;;;2.90;0.90;;;;;;;;;;10342280;28;20145;-82
2023/08/26 15:50:42;;;;;;;0.88;0.60;;;;;;;;;;10332545;28;20050;-82
2023/08/26 15:55:47;;;;;;;1.08;0.70;;;;;;;;;;10340606;28;20064;-87
2023/08/26 16:00:54;;;;;;;0.80;0.60;;;;;;;;;;10335684;28;20047;-85
2023/08/26 16:05:57;;;;;;;0.90;0.65;;;;;;;;;;10358487;28;20057;-84
2023/08/26 16:11:02;;;;;;;0.60;0.50;;;;;;;;;;10349625;28;20128;-84
2023/08/26 16:16:06;;;;;;;1.35;0.50;;;;;;;;;;10356347;28;20046;-85
2023/08/26 16:21:09;;;;;;;1.33;0.50;;;;;;;;;;10321656;28;20046;-83
2023/08/26 16:26:14;;;;;;;1.08;0.40;;;;;;;;;;10337424;28;20049;-84
2023/08/26 16:31:18;;;;;;;0.50;0.32;;;;;;;;;;10321424;28;20058;-87
2023/08/26 16:36:22;;;;;;;0.63;0.30;;;;;;;;;;10330409;28;20049;-84
2023/08/26 16:41:26;;;;;;;0.50;0.40;;;;;;;;;;10336981;28;20125;-86
2023/08/26 16:46:29;;;;;;;0.95;0.40;;;;;;;;;;10361493;28;20050;-85
2023/08/26 16:51:33;;;;;;;1.20;0.60;;;;;;;;;;10328354;28;20463;-81
2023/08/26 16:56:37;;;;;;;0.98;0.57;;;;;;;;;;10338943;28;20318;-82
2023/08/26 17:01:41;;;;;;;2.33;0.80;;;;;;;;;;10344853;28;20073;-82
2023/08/26 17:06:44;;;;;;;1.40;0.80;;;;;;;;;;10362279;28;20073;-83
2023/08/26 17:11:49;;;;;;;1.90;0.75;;;;;;;;;;10351808;28;20132;-84
2023/08/26 17:16:52;;;;;;;0.90;0.60;;;;;;;;;;10361723;28;20143;-84
2023/08/26 17:21:55;;;;;;;2.53;0.90;;;;;;;;;;10360311;28;20128;-83
2023/08/26 17:27:00;;;;;;;0.70;0.40;;;;;;;;;;10342546;28;20784;-84
2023/08/26 17:32:04;;;;;;;1.40;0.60;;;;;;;;;;10342814;28;20038;-83
2023/08/26 17:37:07;;;;;;;0.70;0.50;;;;;;;;;;10351680;28;20037;-85
2023/08/26 17:42:12;;;;;;;1.08;0.50;;;;;;;;;;10342626;28;20137;-84
2023/08/26 17:47:15;;;;;;;0.50;0.45;;;;;;;;;;10341825;28;20084;-86
2023/08/26 17:52:18;;;;;;;0.95;0.75;;;;;;;;;;10342343;28;20543;-84
2023/08/26 17:57:24;;;;;;;1.08;0.70;;;;;;;;;;10341416;28;20133;-86
2023/08/26 18:02:27;;;;;;;;;;;;;;;;;;10348595;28;20046;-86
2023/08/26 18:07:31;;;;;;;1.23;0.55;;;;;;;;;;10339127;28;20016;-84
2023/08/26 18:12:35;;;;;;;0.68;0.60;;;;;;;;;;10359140;28;20049;-85
2023/08/26 18:17:39;;;;;;;0.38;0.35;;;;;;;;;;10356803;28;20450;-85
2023/08/26 18:22:42;;;;;;;0.80;0.60;;;;;;;;;;10340188;28;20050;-84
2023/08/26 18:27:47;;;;;;;1.35;0.93;;;;;;;;;;10341241;28;20045;-84
2023/08/26 18:32:51;;;;;;;0.80;0.50;;;;;;;;;;10342156;28;20046;-84
2023/08/26 18:37:54;;;;;;;0.85;0.60;;;;;;;;;;10349304;28;20042;-85
2023/08/26 18:42:59;;;;;;;0.85;0.50;;;;;;;;;;10357866;28;20050;-85
2023/08/26 18:48:02;;;;;;;1.40;0.60;;;;;;;;;;10358069;28;20045;-85
2023/08/26 18:53:08;;;;;;;0.95;0.40;;;;;;;;;;10342055;28;20077;-84
2023/08/26 18:58:13;;;;;;;0.73;0.57;;;;;;;;;;10340022;28;20096;-84
2023/08/26 19:03:16;;;;;;;1.75;0.70;;;;;;;;;;10347240;28;20048;-83
2023/08/26 19:08:20;;;;;;;1.38;0.55;;;;;;;;;;10358221;28;20415;-88
2023/08/26 19:13:25;;;;;;;0.90;0.50;;;;;;;;;;10366721;28;20233;-86
2023/08/26 19:18:28;;;;;;;0.63;0.50;;;;;;;;;;10354933;28;20441;-82
2023/08/26 19:23:32;;;;;;;1.52;0.50;;;;;;;;;;10338111;28;20050;-81
2023/08/26 19:28:36;;;;;;;0.82;0.57;;;;;;;;;;10329818;28;20137;-81
2023/08/26 19:33:40;;;;;;;1.13;0.60;;;;;;;;;;10336348;28;20070;-82
2023/08/26 19:38:43;;;;;;;1.35;0.60;;;;;;;;;;10337289;28;20463;-82
2023/08/26 19:43:48;;;;;;;0.60;0.47;;;;;;;;;;10330047;28;20085;-82
2023/08/26 19:48:51;;;;;;;2.90;0.65;;;;;;;;;;10337339;28;20124;-82
2023/08/26 19:53:57;;;;;;;1.00;0.75;;;;;;;;;;10331495;28;20400;-81
2023/08/26 19:59:02;;;;;;;1.23;0.70;;;;;;;;;;10337808;28;20046;-82
2023/08/26 20:04:06;;;;;;;0.77;0.65;;;;;;;;;;10355694;28;20073;-82
2023/08/26 20:09:10;;;;;;;0.50;0.50;;;;;;;;;;10336823;28;20530;-82
2023/08/26 20:14:15;;;;;;;1.00;0.60;;;;;;;;;;10336854;28;20049;-81
2023/08/26 20:19:18;;;;;;;1.30;0.65;;;;;;;;;;10344842;28;20096;-83
2023/08/26 20:24:22;;;;;;;2.45;0.80;;;;;;;;;;10364643;28;20178;-85
2023/08/26 20:29:26;;;;;;;1.13;0.90;;;;;;;;;;10345558;28;20061;-84
2023/08/26 20:34:30;;;;;;;1.00;0.80;;;;;;;;;;10346871;28;20544;-84
2023/08/26 20:39:33;;;;;;;2.00;0.80;;;;;;;;;;10363060;28;20463;-82
2023/08/26 20:44:38;;;;;;;1.67;0.70;;;;;;;;;;10344439;28;20050;-82
2023/08/26 20:49:41;;;;;;;1.95;0.68;;;;;;;;;;10361880;28;20057;-82
2023/08/26 20:54:44;;;;;;;1.15;0.60;;;;;;;;;;10368523;28;20069;-82
2023/08/26 20:59:49;;;;;;;1.65;0.70;;;;;;;;;;10361308;28;20111;-81
2023/08/26 21:04:53;;;;;;;1.13;0.73;;;;;;;;;;10334225;28;20057;-82
2023/08/26 21:09:56;;;;;;;2.58;0.60;;;;;;;;;;10319603;28;20058;-82
2023/08/26 21:15:00;;;;;;;0.80;0.60;;;;;;;;;;10316790;28;20038;-81
2023/08/26 21:20:07;;;;;;;0.77;0.60;;;;;;;;;;10326718;28;20046;-82
2023/08/26 21:25:11;;;;;;;2.60;0.68;;;;;;;;;;10318195;28;20050;-82
2023/08/26 21:30:16;;;;;;;5.47;1.08;;;;;;;;;;10300563;28;20069;-82
2023/08/26 21:35:19;;;;;;;1.10;0.55;;;;;;;;;;10301767;28;20129;-82
2023/08/26 21:40:22;;;;;;;0.75;0.50;;;;;;;;;;10309558;28;20046;-82
2023/08/26 21:45:27;;;;;;;1.55;0.52;;;;;;;;;;10317727;28;20133;-82
2023/08/26 21:50:30;;;;;;;0.60;0.50;;;;;;;;;;10315143;28;20078;-84
2023/08/26 21:55:34;;;;;;;1.70;0.70;;;;;;;;;;10305311;28;20062;-82
2023/08/26 22:00:39;;;;;;;1.58;0.60;;;;;;;;;;10318980;28;20080;-82
2023/08/26 22:05:42;;;;;;;1.40;0.75;;;;;;;;;;10344513;28;20810;-82
2023/08/26 22:10:46;;;;;;;1.00;0.45;;;;;;;;;;10328044;28;20137;-86
2023/08/26 22:15:51;;;;;;;1.00;0.63;;;;;;;;;;10330997;28;20125;-82
2023/08/26 22:20:54;;;;;;;0.87;0.60;;;;;;;;;;10353163;28;20112;-82
2023/08/26 22:25:58;;;;;;;1.25;0.50;;;;;;;;;;10331596;28;20045;-82
2023/08/26 22:31:03;;;;;;;0.57;0.40;;;;;;;;;;10322533;28;20145;-81
2023/08/26 22:36:06;;;;;;;1.33;0.50;;;;;;;;;;10331631;28;20064;-81
2023/08/26 22:41:09;;;;;;;1.33;0.70;;;;;;;;;;10331631;28;20495;-82
2023/08/26 22:46:14;;;;;;;0.65;0.38;;;;;;;;;;10342891;28;20595;-83
2023/08/26 22:51:17;;;;;;;0.20;0.20;;;;;;;;;;10316850;28;20073;-82
2023/08/26 22:56:21;;;;;;;0.50;0.30;;;;;;;;;;10335297;28;20050;-82
2023/08/26 23:01:25;;;;;;;0.55;0.40;;;;;;;;;;10321651;28;20479;-83
2023/08/26 23:06:29;;;;;;;0.63;0.30;;;;;;;;;;10329907;28;20081;-82
2023/08/26 23:11:32;;;;;;;1.65;0.40;;;;;;;;;;10327983;28;20141;-81
2023/08/26 23:16:37;;;;;;;0.77;0.40;;;;;;;;;;10328280;28;20074;-82
2023/08/26 23:21:40;;;;;;;0.30;0.30;;;;;;;;;;10321840;28;20080;-82
2023/08/26 23:26:44;;;;;;;0.98;0.40;;;;;;;;;;10326591;28;20133;-82
2023/08/26 23:31:48;;;;;;;0.43;0.30;;;;;;;;;;10305360;28;20070;-82
2023/08/26 23:36:52;;;;;;;0.30;0.30;;;;;;;;;;10312219;28;20059;-81
2023/08/26 23:41:55;;;;;;;0.75;0.40;;;;;;;;;;10319245;28;20087;-82
2023/08/26 23:47:00;;;;;;;1.40;0.30;;;;;;;;;;10326720;28;20132;-82
2023/08/26 23:52:03;;;;;;;1.75;0.57;;;;;;;;;;10348788;28;20054;-82
2023/08/26 23:57:07;;;;;;;0.32;0.32;;;;;;;;;;10320018;28;20146;-81
